Calabogie, Canada
Current Conditions -  °F | °C
As of 6:00 PM on Monday 24 Nov 2014 (Local Time) from CYOW Reporting Station
Light Rain Light Rain  
Wind Chill: 14°   Ceiling: 7100
Heat Index: 14°   Visibility: 15mi
Dew Point: 10°   Wind: 29mph
Humidity: 77%   Direction: 220°SW
Pressure: 29.27"   Gusts: 45mph
Location:  45.31°N, 76.72°W
Report Text: CYOW 242300Z 22025G39KT 15SM -RA FEW050 OVC071 14/10 A2927 RMK SC2AC6 PRESRR SLP914 DENSITY ALT 1000FT
Loading
Personal Weather Stations






























Interactive Weather Map New forecast layout! Learn more

10-Day Weather Forecast

Advertisements
Track Severe Weather on mobile